<?xml version="1.0" encoding="UTF-8"?>
<gpx version="1.1" creator="GPSBabel - https://www.gpsbabel.org" xmlns="http://www.topografix.com/GPX/1/1" xmlns:xsi="http://www.w3.org/2001/XMLSchema-instance">
  <metadata>
    <name>Gleich geschafft</name>
    <link href="https://www.strava.com/activities/19966493138"/>
    <time>2026-09-02T16:58:08.976Z</time>
    <keywords>activities:19966493138</keywords>
    <bounds minlat="48.822085000" minlon="10.097616000" maxlat="48.853422000" maxlon="10.199667000"/>
  </metadata>
  <trk>
    <name>Gleich geschafft</name>
    <trkseg>
      <trkpt lat="48.841349000" lon="10.097616000">
        <ele>434.200</ele>
        <time>2026-08-30T15:55:59Z</time>
      </trkpt>
      <trkpt lat="48.841506000" lon="10.097744000">
        <ele>434.200</ele>
        <time>2026-08-30T15:56:04Z</time>
      </trkpt>
      <trkpt lat="48.841589000" lon="10.097849000">
        <ele>434.200</ele>
        <time>2026-08-30T15:56:07Z</time>
      </trkpt>
      <trkpt lat="48.841786000" lon="10.098149000">
        <ele>434.000</ele>
        <time>2026-08-30T15:56:15Z</time>
      </trkpt>
      <trkpt lat="48.841811000" lon="10.098292000">
        <ele>434.200</ele>
        <time>2026-08-30T15:56:18Z</time>
      </trkpt>
      <trkpt lat="48.841798000" lon="10.098405000">
        <ele>434.200</ele>
        <time>2026-08-30T15:56:20Z</time>
      </trkpt>
      <trkpt lat="48.841810000" lon="10.098525000">
        <ele>434.200</ele>
        <time>2026-08-30T15:56:22Z</time>
      </trkpt>
      <trkpt lat="48.841853000" lon="10.098630000">
        <ele>434.200</ele>
        <time>2026-08-30T15:56:24Z</time>
      </trkpt>
      <trkpt lat="48.841877000" lon="10.098746000">
        <ele>434.400</ele>
        <time>2026-08-30T15:56:26Z</time>
      </trkpt>
      <trkpt lat="48.841871000" lon="10.098879000">
        <ele>434.600</ele>
        <time>2026-08-30T15:56:28Z</time>
      </trkpt>
      <trkpt lat="48.841881000" lon="10.099007000">
        <ele>434.800</ele>
        <time>2026-08-30T15:56:30Z</time>
      </trkpt>
      <trkpt lat="48.842078000" lon="10.100166000">
        <ele>437.400</ele>
        <time>2026-08-30T15:56:48Z</time>
      </trkpt>
      <trkpt lat="48.842159000" lon="10.100561000">
        <ele>438.000</ele>
        <time>2026-08-30T15:56:54Z</time>
      </trkpt>
      <trkpt lat="48.842191000" lon="10.100818000">
        <ele>438.600</ele>
        <time>2026-08-30T15:56:58Z</time>
      </trkpt>
      <trkpt lat="48.842216000" lon="10.100935000">
        <ele>438.800</ele>
        <time>2026-08-30T15:57:00Z</time>
      </trkpt>
      <trkpt lat="48.842242000" lon="10.101188000">
        <ele>439.000</ele>
        <time>2026-08-30T15:57:04Z</time>
      </trkpt>
      <trkpt lat="48.842297000" lon="10.101420000">
        <ele>439.600</ele>
        <time>2026-08-30T15:57:08Z</time>
      </trkpt>
      <trkpt lat="48.842338000" lon="10.101521000">
        <ele>439.800</ele>
        <time>2026-08-30T15:57:10Z</time>
      </trkpt>
      <trkpt lat="48.842452000" lon="10.101707000">
        <ele>439.800</ele>
        <time>2026-08-30T15:57:14Z</time>
      </trkpt>
      <trkpt lat="48.842494000" lon="10.101812000">
        <ele>440.000</ele>
        <time>2026-08-30T15:57:16Z</time>
      </trkpt>
      <trkpt lat="48.842642000" lon="10.102375000">
        <ele>441.600</ele>
        <time>2026-08-30T15:57:27Z</time>
      </trkpt>
      <trkpt lat="48.842829000" lon="10.102842000">
        <ele>443.000</ele>
        <time>2026-08-30T15:57:37Z</time>
      </trkpt>
      <trkpt lat="48.842878000" lon="10.102929000">
        <ele>443.200</ele>
        <time>2026-08-30T15:57:39Z</time>
      </trkpt>
      <trkpt lat="48.842958000" lon="10.102943000">
        <ele>443.400</ele>
        <time>2026-08-30T15:57:41Z</time>
      </trkpt>
      <trkpt lat="48.843146000" lon="10.102823000">
        <ele>442.800</ele>
        <time>2026-08-30T15:57:45Z</time>
      </trkpt>
      <trkpt lat="48.843225000" lon="10.102892000">
        <ele>442.400</ele>
        <time>2026-08-30T15:57:48Z</time>
      </trkpt>
      <trkpt lat="48.843440000" lon="10.103430000">
        <ele>442.800</ele>
        <time>2026-08-30T15:57:59Z</time>
      </trkpt>
      <trkpt lat="48.843500000" lon="10.103653000">
        <ele>443.200</ele>
        <time>2026-08-30T15:58:03Z</time>
      </trkpt>
      <trkpt lat="48.843610000" lon="10.103965000">
        <ele>444.000</ele>
        <time>2026-08-30T15:58:09Z</time>
      </trkpt>
      <trkpt lat="48.843786000" lon="10.104406000">
        <ele>445.200</ele>
        <time>2026-08-30T15:58:18Z</time>
      </trkpt>
      <trkpt lat="48.843858000" lon="10.104468000">
        <ele>445.600</ele>
        <time>2026-08-30T15:58:21Z</time>
      </trkpt>
      <trkpt lat="48.843956000" lon="10.104442000">
        <ele>446.000</ele>
        <time>2026-08-30T15:58:24Z</time>
      </trkpt>
      <trkpt lat="48.844216000" lon="10.104285000">
        <ele>446.400</ele>
        <time>2026-08-30T15:58:32Z</time>
      </trkpt>
      <trkpt lat="48.844292000" lon="10.104204000">
        <ele>446.600</ele>
        <time>2026-08-30T15:58:35Z</time>
      </trkpt>
      <trkpt lat="48.844378000" lon="10.104206000">
        <ele>446.600</ele>
        <time>2026-08-30T15:58:38Z</time>
      </trkpt>
      <trkpt lat="48.844434000" lon="10.104317000">
        <ele>446.600</ele>
        <time>2026-08-30T15:58:41Z</time>
      </trkpt>
      <trkpt lat="48.844530000" lon="10.104555000">
        <ele>447.400</ele>
        <time>2026-08-30T15:58:47Z</time>
      </trkpt>
      <trkpt lat="48.844588000" lon="10.104658000">
        <ele>447.800</ele>
        <time>2026-08-30T15:58:50Z</time>
      </trkpt>
      <trkpt lat="48.844626000" lon="10.104755000">
        <ele>448.200</ele>
        <time>2026-08-30T15:58:53Z</time>
      </trkpt>
      <trkpt lat="48.844637000" lon="10.104874000">
        <ele>448.800</ele>
        <time>2026-08-30T15:58:56Z</time>
      </trkpt>
      <trkpt lat="48.844679000" lon="10.105020000">
        <ele>449.200</ele>
        <time>2026-08-30T15:58:59Z</time>
      </trkpt>
      <trkpt lat="48.844781000" lon="10.105269000">
        <ele>449.000</ele>
        <time>2026-08-30T15:59:03Z</time>
      </trkpt>
      <trkpt lat="48.844921000" lon="10.105487000">
        <ele>448.600</ele>
        <time>2026-08-30T15:59:07Z</time>
      </trkpt>
      <trkpt lat="48.845003000" lon="10.105739000">
        <ele>448.400</ele>
        <time>2026-08-30T15:59:11Z</time>
      </trkpt>
      <trkpt lat="48.845137000" lon="10.106067000">
        <ele>448.600</ele>
        <time>2026-08-30T15:59:17Z</time>
      </trkpt>
      <trkpt lat="48.845378000" lon="10.106890000">
        <ele>450.600</ele>
        <time>2026-08-30T15:59:32Z</time>
      </trkpt>
      <trkpt lat="48.845555000" lon="10.107692000">
        <ele>451.200</ele>
        <time>2026-08-30T15:59:45Z</time>
      </trkpt>
      <trkpt lat="48.845651000" lon="10.108049000">
        <ele>451.800</ele>
        <time>2026-08-30T15:59:51Z</time>
      </trkpt>
      <trkpt lat="48.845670000" lon="10.108175000">
        <ele>452.000</ele>
        <time>2026-08-30T15:59:53Z</time>
      </trkpt>
      <trkpt lat="48.845808000" lon="10.108728000">
        <ele>453.200</ele>
        <time>2026-08-30T16:00:03Z</time>
      </trkpt>
      <trkpt lat="48.846016000" lon="10.109405000">
        <ele>454.400</ele>
        <time>2026-08-30T16:00:16Z</time>
      </trkpt>
      <trkpt lat="48.846284000" lon="10.110141000">
        <ele>455.600</ele>
        <time>2026-08-30T16:00:30Z</time>
      </trkpt>
      <trkpt lat="48.846342000" lon="10.110350000">
        <ele>456.000</ele>
        <time>2026-08-30T16:00:34Z</time>
      </trkpt>
      <trkpt lat="48.846386000" lon="10.110449000">
        <ele>456.000</ele>
        <time>2026-08-30T16:00:36Z</time>
      </trkpt>
      <trkpt lat="48.846491000" lon="10.110785000">
        <ele>456.800</ele>
        <time>2026-08-30T16:00:42Z</time>
      </trkpt>
      <trkpt lat="48.846610000" lon="10.111228000">
        <ele>457.400</ele>
        <time>2026-08-30T16:00:50Z</time>
      </trkpt>
      <trkpt lat="48.846675000" lon="10.111576000">
        <ele>458.000</ele>
        <time>2026-08-30T16:00:56Z</time>
      </trkpt>
      <trkpt lat="48.846749000" lon="10.112189000">
        <ele>458.800</ele>
        <time>2026-08-30T16:01:06Z</time>
      </trkpt>
      <trkpt lat="48.846806000" lon="10.112540000">
        <ele>459.400</ele>
        <time>2026-08-30T16:01:12Z</time>
      </trkpt>
      <trkpt lat="48.846871000" lon="10.113066000">
        <ele>460.600</ele>
        <time>2026-08-30T16:01:22Z</time>
      </trkpt>
      <trkpt lat="48.846914000" lon="10.113280000">
        <ele>461.000</ele>
        <time>2026-08-30T16:01:26Z</time>
      </trkpt>
      <trkpt lat="48.846920000" lon="10.113433000">
        <ele>461.400</ele>
        <time>2026-08-30T16:01:29Z</time>
      </trkpt>
      <trkpt lat="48.847004000" lon="10.114163000">
        <ele>462.800</ele>
        <time>2026-08-30T16:01:42Z</time>
      </trkpt>
      <trkpt lat="48.847133000" lon="10.115128000">
        <ele>464.800</ele>
        <time>2026-08-30T16:02:00Z</time>
      </trkpt>
      <trkpt lat="48.847177000" lon="10.115386000">
        <ele>465.400</ele>
        <time>2026-08-30T16:02:05Z</time>
      </trkpt>
      <trkpt lat="48.847185000" lon="10.115529000">
        <ele>465.600</ele>
        <time>2026-08-30T16:02:08Z</time>
      </trkpt>
      <trkpt lat="48.847248000" lon="10.116048000">
        <ele>467.000</ele>
        <time>2026-08-30T16:02:18Z</time>
      </trkpt>
      <trkpt lat="48.847299000" lon="10.116337000">
        <ele>467.600</ele>
        <time>2026-08-30T16:02:24Z</time>
      </trkpt>
      <trkpt lat="48.847304000" lon="10.116485000">
        <ele>468.000</ele>
        <time>2026-08-30T16:02:27Z</time>
      </trkpt>
      <trkpt lat="48.847352000" lon="10.116784000">
        <ele>468.400</ele>
        <time>2026-08-30T16:02:33Z</time>
      </trkpt>
      <trkpt lat="48.847566000" lon="10.118483000">
        <ele>471.000</ele>
        <time>2026-08-30T16:03:03Z</time>
      </trkpt>
      <trkpt lat="48.847662000" lon="10.118912000">
        <ele>471.800</ele>
        <time>2026-08-30T16:03:11Z</time>
      </trkpt>
      <trkpt lat="48.848062000" lon="10.120442000">
        <ele>474.600</ele>
        <time>2026-08-30T16:03:39Z</time>
      </trkpt>
      <trkpt lat="48.848230000" lon="10.120995000">
        <ele>475.400</ele>
        <time>2026-08-30T16:03:49Z</time>
      </trkpt>
      <trkpt lat="48.848363000" lon="10.121291000">
        <ele>476.000</ele>
        <time>2026-08-30T16:03:55Z</time>
      </trkpt>
      <trkpt lat="48.848463000" lon="10.121462000">
        <ele>476.200</ele>
        <time>2026-08-30T16:03:59Z</time>
      </trkpt>
      <trkpt lat="48.848767000" lon="10.121857000">
        <ele>477.400</ele>
        <time>2026-08-30T16:04:09Z</time>
      </trkpt>
      <trkpt lat="48.851053000" lon="10.124603000">
        <ele>487.400</ele>
        <time>2026-08-30T16:05:33Z</time>
      </trkpt>
      <trkpt lat="48.851283000" lon="10.124897000">
        <ele>488.600</ele>
        <time>2026-08-30T16:05:42Z</time>
      </trkpt>
      <trkpt lat="48.851440000" lon="10.125071000">
        <ele>489.400</ele>
        <time>2026-08-30T16:05:48Z</time>
      </trkpt>
      <trkpt lat="48.852969000" lon="10.126931000">
        <ele>496.800</ele>
        <time>2026-08-30T16:06:48Z</time>
      </trkpt>
      <trkpt lat="48.853366000" lon="10.127386000">
        <ele>499.800</ele>
        <time>2026-08-30T16:07:08Z</time>
      </trkpt>
      <trkpt lat="48.853422000" lon="10.127465000">
        <ele>500.400</ele>
        <time>2026-08-30T16:07:12Z</time>
      </trkpt>
      <trkpt lat="48.853421000" lon="10.127585000">
        <ele>501.200</ele>
        <time>2026-08-30T16:07:17Z</time>
      </trkpt>
      <trkpt lat="48.853359000" lon="10.127656000">
        <ele>501.400</ele>
        <time>2026-08-30T16:07:20Z</time>
      </trkpt>
      <trkpt lat="48.853265000" lon="10.127723000">
        <ele>501.200</ele>
        <time>2026-08-30T16:07:23Z</time>
      </trkpt>
      <trkpt lat="48.853193000" lon="10.127729000">
        <ele>501.000</ele>
        <time>2026-08-30T16:07:25Z</time>
      </trkpt>
      <trkpt lat="48.852706000" lon="10.127535000">
        <ele>501.200</ele>
        <time>2026-08-30T16:07:40Z</time>
      </trkpt>
      <trkpt lat="48.852299000" lon="10.127606000">
        <ele>503.800</ele>
        <time>2026-08-30T16:07:56Z</time>
      </trkpt>
      <trkpt lat="48.852219000" lon="10.127638000">
        <ele>504.600</ele>
        <time>2026-08-30T16:08:00Z</time>
      </trkpt>
      <trkpt lat="48.852142000" lon="10.127643000">
        <ele>505.200</ele>
        <time>2026-08-30T16:08:04Z</time>
      </trkpt>
      <trkpt lat="48.851990000" lon="10.127704000">
        <ele>507.200</ele>
        <time>2026-08-30T16:08:14Z</time>
      </trkpt>
      <trkpt lat="48.851837000" lon="10.127806000">
        <ele>509.000</ele>
        <time>2026-08-30T16:08:24Z</time>
      </trkpt>
      <trkpt lat="48.851775000" lon="10.127870000">
        <ele>509.800</ele>
        <time>2026-08-30T16:08:29Z</time>
      </trkpt>
      <trkpt lat="48.851703000" lon="10.127913000">
        <ele>510.600</ele>
        <time>2026-08-30T16:08:34Z</time>
      </trkpt>
      <trkpt lat="48.851651000" lon="10.127998000">
        <ele>511.200</ele>
        <time>2026-08-30T16:08:39Z</time>
      </trkpt>
      <trkpt lat="48.851576000" lon="10.128058000">
        <ele>512.200</ele>
        <time>2026-08-30T16:08:45Z</time>
      </trkpt>
      <trkpt lat="48.851461000" lon="10.128198000">
        <ele>514.200</ele>
        <time>2026-08-30T16:08:56Z</time>
      </trkpt>
      <trkpt lat="48.851409000" lon="10.128285000">
        <ele>515.400</ele>
        <time>2026-08-30T16:09:02Z</time>
      </trkpt>
      <trkpt lat="48.851345000" lon="10.128362000">
        <ele>516.800</ele>
        <time>2026-08-30T16:09:09Z</time>
      </trkpt>
      <trkpt lat="48.851305000" lon="10.128456000">
        <ele>518.000</ele>
        <time>2026-08-30T16:09:15Z</time>
      </trkpt>
      <trkpt lat="48.851248000" lon="10.128532000">
        <ele>519.400</ele>
        <time>2026-08-30T16:09:21Z</time>
      </trkpt>
      <trkpt lat="48.851197000" lon="10.128628000">
        <ele>521.200</ele>
        <time>2026-08-30T16:09:29Z</time>
      </trkpt>
      <trkpt lat="48.851019000" lon="10.128856000">
        <ele>526.200</ele>
        <time>2026-08-30T16:09:51Z</time>
      </trkpt>
      <trkpt lat="48.850948000" lon="10.128876000">
        <ele>527.200</ele>
        <time>2026-08-30T16:09:57Z</time>
      </trkpt>
      <trkpt lat="48.850887000" lon="10.128939000">
        <ele>528.200</ele>
        <time>2026-08-30T16:10:03Z</time>
      </trkpt>
      <trkpt lat="48.850588000" lon="10.129070000">
        <ele>532.800</ele>
        <time>2026-08-30T16:10:29Z</time>
      </trkpt>
      <trkpt lat="48.850506000" lon="10.129065000">
        <ele>534.200</ele>
        <time>2026-08-30T16:10:36Z</time>
      </trkpt>
      <trkpt lat="48.850432000" lon="10.129095000">
        <ele>536.000</ele>
        <time>2026-08-30T16:11:23Z</time>
      </trkpt>
      <trkpt lat="48.850194000" lon="10.129118000">
        <ele>537.600</ele>
        <time>2026-08-30T16:11:35Z</time>
      </trkpt>
      <trkpt lat="48.850030000" lon="10.129181000">
        <ele>538.800</ele>
        <time>2026-08-30T16:11:42Z</time>
      </trkpt>
      <trkpt lat="48.849873000" lon="10.129215000">
        <ele>540.000</ele>
        <time>2026-08-30T16:11:49Z</time>
      </trkpt>
      <trkpt lat="48.849801000" lon="10.129279000">
        <ele>541.200</ele>
        <time>2026-08-30T16:11:54Z</time>
      </trkpt>
      <trkpt lat="48.849726000" lon="10.129318000">
        <ele>542.200</ele>
        <time>2026-08-30T16:11:59Z</time>
      </trkpt>
      <trkpt lat="48.849644000" lon="10.129331000">
        <ele>543.200</ele>
        <time>2026-08-30T16:12:04Z</time>
      </trkpt>
      <trkpt lat="48.849562000" lon="10.129364000">
        <ele>544.200</ele>
        <time>2026-08-30T16:12:09Z</time>
      </trkpt>
      <trkpt lat="48.849004000" lon="10.129435000">
        <ele>549.000</ele>
        <time>2026-08-30T16:12:40Z</time>
      </trkpt>
      <trkpt lat="48.848472000" lon="10.129575000">
        <ele>553.400</ele>
        <time>2026-08-30T16:13:10Z</time>
      </trkpt>
      <trkpt lat="48.848318000" lon="10.129569000">
        <ele>555.000</ele>
        <time>2026-08-30T16:13:19Z</time>
      </trkpt>
      <trkpt lat="48.848162000" lon="10.129507000">
        <ele>555.800</ele>
        <time>2026-08-30T16:13:26Z</time>
      </trkpt>
      <trkpt lat="48.847995000" lon="10.129418000">
        <ele>556.000</ele>
        <time>2026-08-30T16:13:32Z</time>
      </trkpt>
      <trkpt lat="48.847578000" lon="10.129233000">
        <ele>555.600</ele>
        <time>2026-08-30T16:13:44Z</time>
      </trkpt>
      <trkpt lat="48.847352000" lon="10.129165000">
        <ele>555.600</ele>
        <time>2026-08-30T16:13:50Z</time>
      </trkpt>
      <trkpt lat="48.847033000" lon="10.129100000">
        <ele>556.000</ele>
        <time>2026-08-30T16:13:59Z</time>
      </trkpt>
      <trkpt lat="48.846640000" lon="10.129100000">
        <ele>556.800</ele>
        <time>2026-08-30T16:14:11Z</time>
      </trkpt>
      <trkpt lat="48.846382000" lon="10.129143000">
        <ele>557.400</ele>
        <time>2026-08-30T16:14:20Z</time>
      </trkpt>
      <trkpt lat="48.846312000" lon="10.129175000">
        <ele>557.600</ele>
        <time>2026-08-30T16:14:22Z</time>
      </trkpt>
      <trkpt lat="48.846262000" lon="10.129267000">
        <ele>557.600</ele>
        <time>2026-08-30T16:14:25Z</time>
      </trkpt>
      <trkpt lat="48.846269000" lon="10.129396000">
        <ele>558.400</ele>
        <time>2026-08-30T16:14:30Z</time>
      </trkpt>
      <trkpt lat="48.846328000" lon="10.129748000">
        <ele>561.800</ele>
        <time>2026-08-30T16:14:46Z</time>
      </trkpt>
      <trkpt lat="48.846405000" lon="10.129966000">
        <ele>564.000</ele>
        <time>2026-08-30T16:14:56Z</time>
      </trkpt>
      <trkpt lat="48.846530000" lon="10.130134000">
        <ele>566.000</ele>
        <time>2026-08-30T16:15:06Z</time>
      </trkpt>
      <trkpt lat="48.846599000" lon="10.130189000">
        <ele>567.000</ele>
        <time>2026-08-30T16:15:11Z</time>
      </trkpt>
      <trkpt lat="48.846911000" lon="10.130332000">
        <ele>570.400</ele>
        <time>2026-08-30T16:15:30Z</time>
      </trkpt>
      <trkpt lat="48.847056000" lon="10.130418000">
        <ele>571.600</ele>
        <time>2026-08-30T16:15:38Z</time>
      </trkpt>
      <trkpt lat="48.847279000" lon="10.130602000">
        <ele>572.800</ele>
        <time>2026-08-30T16:15:50Z</time>
      </trkpt>
      <trkpt lat="48.847402000" lon="10.130746000">
        <ele>573.800</ele>
        <time>2026-08-30T16:15:58Z</time>
      </trkpt>
      <trkpt lat="48.847833000" lon="10.131172000">
        <ele>577.000</ele>
        <time>2026-08-30T16:16:21Z</time>
      </trkpt>
      <trkpt lat="48.847898000" lon="10.131262000">
        <ele>577.400</ele>
        <time>2026-08-30T16:16:25Z</time>
      </trkpt>
      <trkpt lat="48.847969000" lon="10.131329000">
        <ele>578.000</ele>
        <time>2026-08-30T16:16:29Z</time>
      </trkpt>
      <trkpt lat="48.848030000" lon="10.131423000">
        <ele>578.600</ele>
        <time>2026-08-30T16:16:33Z</time>
      </trkpt>
      <trkpt lat="48.848163000" lon="10.131561000">
        <ele>579.400</ele>
        <time>2026-08-30T16:16:40Z</time>
      </trkpt>
      <trkpt lat="48.848211000" lon="10.131657000">
        <ele>580.000</ele>
        <time>2026-08-30T16:16:44Z</time>
      </trkpt>
      <trkpt lat="48.848700000" lon="10.132326000">
        <ele>586.800</ele>
        <time>2026-08-30T16:17:21Z</time>
      </trkpt>
      <trkpt lat="48.848807000" lon="10.132501000">
        <ele>588.400</ele>
        <time>2026-08-30T16:17:30Z</time>
      </trkpt>
      <trkpt lat="48.848872000" lon="10.132582000">
        <ele>589.200</ele>
        <time>2026-08-30T16:17:35Z</time>
      </trkpt>
      <trkpt lat="48.849220000" lon="10.133111000">
        <ele>594.800</ele>
        <time>2026-08-30T16:18:05Z</time>
      </trkpt>
      <trkpt lat="48.849318000" lon="10.133279000">
        <ele>596.400</ele>
        <time>2026-08-30T16:18:14Z</time>
      </trkpt>
      <trkpt lat="48.849492000" lon="10.133694000">
        <ele>599.400</ele>
        <time>2026-08-30T16:18:33Z</time>
      </trkpt>
      <trkpt lat="48.849597000" lon="10.134017000">
        <ele>602.000</ele>
        <time>2026-08-30T16:18:48Z</time>
      </trkpt>
      <trkpt lat="48.849691000" lon="10.134362000">
        <ele>604.600</ele>
        <time>2026-08-30T16:19:03Z</time>
      </trkpt>
      <trkpt lat="48.849766000" lon="10.134572000">
        <ele>606.600</ele>
        <time>2026-08-30T16:19:14Z</time>
      </trkpt>
      <trkpt lat="48.849821000" lon="10.134793000">
        <ele>608.400</ele>
        <time>2026-08-30T16:19:25Z</time>
      </trkpt>
      <trkpt lat="48.849859000" lon="10.135028000">
        <ele>610.200</ele>
        <time>2026-08-30T16:19:36Z</time>
      </trkpt>
      <trkpt lat="48.849886000" lon="10.135135000">
        <ele>611.000</ele>
        <time>2026-08-30T16:19:41Z</time>
      </trkpt>
      <trkpt lat="48.849941000" lon="10.135465000">
        <ele>613.400</ele>
        <time>2026-08-30T16:19:56Z</time>
      </trkpt>
      <trkpt lat="48.850049000" lon="10.135921000">
        <ele>617.000</ele>
        <time>2026-08-30T16:20:17Z</time>
      </trkpt>
      <trkpt lat="48.850063000" lon="10.136046000">
        <ele>617.800</ele>
        <time>2026-08-30T16:20:22Z</time>
      </trkpt>
      <trkpt lat="48.850151000" lon="10.136536000">
        <ele>621.800</ele>
        <time>2026-08-30T16:20:45Z</time>
      </trkpt>
      <trkpt lat="48.850160000" lon="10.136649000">
        <ele>622.400</ele>
        <time>2026-08-30T16:20:50Z</time>
      </trkpt>
      <trkpt lat="48.850185000" lon="10.136774000">
        <ele>623.600</ele>
        <time>2026-08-30T16:20:56Z</time>
      </trkpt>
      <trkpt lat="48.850213000" lon="10.137031000">
        <ele>625.200</ele>
        <time>2026-08-30T16:21:07Z</time>
      </trkpt>
      <trkpt lat="48.850275000" lon="10.137362000">
        <ele>627.800</ele>
        <time>2026-08-30T16:21:22Z</time>
      </trkpt>
      <trkpt lat="48.850283000" lon="10.137475000">
        <ele>628.600</ele>
        <time>2026-08-30T16:21:27Z</time>
      </trkpt>
      <trkpt lat="48.850354000" lon="10.137703000">
        <ele>630.600</ele>
        <time>2026-08-30T16:21:37Z</time>
      </trkpt>
      <trkpt lat="48.850403000" lon="10.137917000">
        <ele>632.400</ele>
        <time>2026-08-30T16:21:48Z</time>
      </trkpt>
      <trkpt lat="48.850483000" lon="10.138657000">
        <ele>637.600</ele>
        <time>2026-08-30T16:22:20Z</time>
      </trkpt>
      <trkpt lat="48.850509000" lon="10.139021000">
        <ele>640.200</ele>
        <time>2026-08-30T16:22:35Z</time>
      </trkpt>
      <trkpt lat="48.850431000" lon="10.139059000">
        <ele>640.800</ele>
        <time>2026-08-30T16:22:40Z</time>
      </trkpt>
      <trkpt lat="48.850364000" lon="10.138983000">
        <ele>641.600</ele>
        <time>2026-08-30T16:22:44Z</time>
      </trkpt>
      <trkpt lat="48.850327000" lon="10.138869000">
        <ele>642.200</ele>
        <time>2026-08-30T16:22:48Z</time>
      </trkpt>
      <trkpt lat="48.850284000" lon="10.138633000">
        <ele>643.000</ele>
        <time>2026-08-30T16:22:56Z</time>
      </trkpt>
      <trkpt lat="48.850121000" lon="10.138167000">
        <ele>644.600</ele>
        <time>2026-08-30T16:23:12Z</time>
      </trkpt>
      <trkpt lat="48.850030000" lon="10.137967000">
        <ele>645.800</ele>
        <time>2026-08-30T16:23:21Z</time>
      </trkpt>
      <trkpt lat="48.849910000" lon="10.137769000">
        <ele>647.200</ele>
        <time>2026-08-30T16:23:29Z</time>
      </trkpt>
      <trkpt lat="48.849660000" lon="10.137439000">
        <ele>650.000</ele>
        <time>2026-08-30T16:23:46Z</time>
      </trkpt>
      <trkpt lat="48.849192000" lon="10.136782000">
        <ele>655.000</ele>
        <time>2026-08-30T16:24:20Z</time>
      </trkpt>
      <trkpt lat="48.849078000" lon="10.136592000">
        <ele>656.600</ele>
        <time>2026-08-30T16:24:30Z</time>
      </trkpt>
      <trkpt lat="48.848811000" lon="10.136284000">
        <ele>659.200</ele>
        <time>2026-08-30T16:24:48Z</time>
      </trkpt>
      <trkpt lat="48.848670000" lon="10.136165000">
        <ele>660.600</ele>
        <time>2026-08-30T16:24:58Z</time>
      </trkpt>
      <trkpt lat="48.848589000" lon="10.136118000">
        <ele>661.400</ele>
        <time>2026-08-30T16:25:03Z</time>
      </trkpt>
      <trkpt lat="48.848424000" lon="10.136053000">
        <ele>662.400</ele>
        <time>2026-08-30T16:25:11Z</time>
      </trkpt>
      <trkpt lat="48.848272000" lon="10.136031000">
        <ele>663.800</ele>
        <time>2026-08-30T16:25:20Z</time>
      </trkpt>
      <trkpt lat="48.848109000" lon="10.136059000">
        <ele>665.000</ele>
        <time>2026-08-30T16:25:30Z</time>
      </trkpt>
      <trkpt lat="48.847815000" lon="10.136235000">
        <ele>668.000</ele>
        <time>2026-08-30T16:25:49Z</time>
      </trkpt>
      <trkpt lat="48.847605000" lon="10.136430000">
        <ele>670.200</ele>
        <time>2026-08-30T16:26:05Z</time>
      </trkpt>
      <trkpt lat="48.847366000" lon="10.136760000">
        <ele>673.000</ele>
        <time>2026-08-30T16:26:26Z</time>
      </trkpt>
      <trkpt lat="48.847294000" lon="10.136832000">
        <ele>673.600</ele>
        <time>2026-08-30T16:26:31Z</time>
      </trkpt>
      <trkpt lat="48.847179000" lon="10.136983000">
        <ele>675.000</ele>
        <time>2026-08-30T16:26:40Z</time>
      </trkpt>
      <trkpt lat="48.847044000" lon="10.137122000">
        <ele>676.400</ele>
        <time>2026-08-30T16:26:50Z</time>
      </trkpt>
      <trkpt lat="48.846496000" lon="10.137818000">
        <ele>682.800</ele>
        <time>2026-08-30T16:27:34Z</time>
      </trkpt>
      <trkpt lat="48.846438000" lon="10.137911000">
        <ele>683.600</ele>
        <time>2026-08-30T16:27:39Z</time>
      </trkpt>
      <trkpt lat="48.846254000" lon="10.138144000">
        <ele>685.800</ele>
        <time>2026-08-30T16:27:54Z</time>
      </trkpt>
      <trkpt lat="48.846203000" lon="10.138233000">
        <ele>686.400</ele>
        <time>2026-08-30T16:27:59Z</time>
      </trkpt>
      <trkpt lat="48.846088000" lon="10.138389000">
        <ele>687.800</ele>
        <time>2026-08-30T16:28:09Z</time>
      </trkpt>
      <trkpt lat="48.845825000" lon="10.138687000">
        <ele>690.800</ele>
        <time>2026-08-30T16:28:29Z</time>
      </trkpt>
      <trkpt lat="48.845677000" lon="10.138812000">
        <ele>692.200</ele>
        <time>2026-08-30T16:28:39Z</time>
      </trkpt>
      <trkpt lat="48.845490000" lon="10.139050000">
        <ele>694.200</ele>
        <time>2026-08-30T16:28:53Z</time>
      </trkpt>
      <trkpt lat="48.845386000" lon="10.139229000">
        <ele>695.600</ele>
        <time>2026-08-30T16:29:03Z</time>
      </trkpt>
      <trkpt lat="48.845270000" lon="10.139563000">
        <ele>698.200</ele>
        <time>2026-08-30T16:29:19Z</time>
      </trkpt>
      <trkpt lat="48.845178000" lon="10.139789000">
        <ele>699.800</ele>
        <time>2026-08-30T16:29:29Z</time>
      </trkpt>
      <trkpt lat="48.845043000" lon="10.139949000">
        <ele>701.400</ele>
        <time>2026-08-30T16:29:40Z</time>
      </trkpt>
      <trkpt lat="48.844965000" lon="10.139985000">
        <ele>702.000</ele>
        <time>2026-08-30T16:29:45Z</time>
      </trkpt>
      <trkpt lat="48.844751000" lon="10.140164000">
        <ele>704.200</ele>
        <time>2026-08-30T16:30:00Z</time>
      </trkpt>
      <trkpt lat="48.844592000" lon="10.140140000">
        <ele>705.000</ele>
        <time>2026-08-30T16:31:14Z</time>
      </trkpt>
      <trkpt lat="48.844515000" lon="10.140154000">
        <ele>704.400</ele>
        <time>2026-08-30T16:31:16Z</time>
      </trkpt>
      <trkpt lat="48.844427000" lon="10.140217000">
        <ele>703.600</ele>
        <time>2026-08-30T16:31:19Z</time>
      </trkpt>
      <trkpt lat="48.844243000" lon="10.140160000">
        <ele>702.600</ele>
        <time>2026-08-30T16:31:26Z</time>
      </trkpt>
      <trkpt lat="48.844170000" lon="10.140162000">
        <ele>702.200</ele>
        <time>2026-08-30T16:31:28Z</time>
      </trkpt>
      <trkpt lat="48.844090000" lon="10.140201000">
        <ele>701.800</ele>
        <time>2026-08-30T16:31:31Z</time>
      </trkpt>
      <trkpt lat="48.843998000" lon="10.140221000">
        <ele>701.600</ele>
        <time>2026-08-30T16:31:34Z</time>
      </trkpt>
      <trkpt lat="48.843924000" lon="10.140258000">
        <ele>701.800</ele>
        <time>2026-08-30T16:31:37Z</time>
      </trkpt>
      <trkpt lat="48.843859000" lon="10.140320000">
        <ele>701.800</ele>
        <time>2026-08-30T16:31:40Z</time>
      </trkpt>
      <trkpt lat="48.843692000" lon="10.140399000">
        <ele>702.200</ele>
        <time>2026-08-30T16:31:46Z</time>
      </trkpt>
      <trkpt lat="48.843569000" lon="10.140567000">
        <ele>703.000</ele>
        <time>2026-08-30T16:31:53Z</time>
      </trkpt>
      <trkpt lat="48.843515000" lon="10.140664000">
        <ele>703.600</ele>
        <time>2026-08-30T16:31:57Z</time>
      </trkpt>
      <trkpt lat="48.843434000" lon="10.140868000">
        <ele>704.800</ele>
        <time>2026-08-30T16:32:05Z</time>
      </trkpt>
      <trkpt lat="48.843255000" lon="10.141411000">
        <ele>708.000</ele>
        <time>2026-08-30T16:32:27Z</time>
      </trkpt>
      <trkpt lat="48.843206000" lon="10.141525000">
        <ele>708.400</ele>
        <time>2026-08-30T16:32:31Z</time>
      </trkpt>
      <trkpt lat="48.843135000" lon="10.141629000">
        <ele>708.400</ele>
        <time>2026-08-30T16:32:35Z</time>
      </trkpt>
      <trkpt lat="48.843071000" lon="10.141679000">
        <ele>708.400</ele>
        <time>2026-08-30T16:32:37Z</time>
      </trkpt>
      <trkpt lat="48.842732000" lon="10.141872000">
        <ele>705.200</ele>
        <time>2026-08-30T16:32:45Z</time>
      </trkpt>
      <trkpt lat="48.842591000" lon="10.142254000">
        <ele>701.600</ele>
        <time>2026-08-30T16:32:53Z</time>
      </trkpt>
      <trkpt lat="48.842542000" lon="10.142520000">
        <ele>699.600</ele>
        <time>2026-08-30T16:32:58Z</time>
      </trkpt>
      <trkpt lat="48.842497000" lon="10.142626000">
        <ele>699.000</ele>
        <time>2026-08-30T16:33:00Z</time>
      </trkpt>
      <trkpt lat="48.842458000" lon="10.142757000">
        <ele>698.400</ele>
        <time>2026-08-30T16:33:02Z</time>
      </trkpt>
      <trkpt lat="48.842426000" lon="10.142993000">
        <ele>697.400</ele>
        <time>2026-08-30T16:33:06Z</time>
      </trkpt>
      <trkpt lat="48.842310000" lon="10.143207000">
        <ele>697.400</ele>
        <time>2026-08-30T16:33:11Z</time>
      </trkpt>
      <trkpt lat="48.842238000" lon="10.143261000">
        <ele>697.200</ele>
        <time>2026-08-30T16:33:13Z</time>
      </trkpt>
      <trkpt lat="48.842045000" lon="10.143495000">
        <ele>697.600</ele>
        <time>2026-08-30T16:33:22Z</time>
      </trkpt>
      <trkpt lat="48.842029000" lon="10.143606000">
        <ele>698.400</ele>
        <time>2026-08-30T16:33:26Z</time>
      </trkpt>
      <trkpt lat="48.841984000" lon="10.143717000">
        <ele>699.400</ele>
        <time>2026-08-30T16:33:31Z</time>
      </trkpt>
      <trkpt lat="48.841924000" lon="10.143789000">
        <ele>700.000</ele>
        <time>2026-08-30T16:33:35Z</time>
      </trkpt>
      <trkpt lat="48.841904000" lon="10.143910000">
        <ele>701.000</ele>
        <time>2026-08-30T16:33:40Z</time>
      </trkpt>
      <trkpt lat="48.841847000" lon="10.144000000">
        <ele>701.600</ele>
        <time>2026-08-30T16:33:44Z</time>
      </trkpt>
      <trkpt lat="48.841812000" lon="10.144236000">
        <ele>703.000</ele>
        <time>2026-08-30T16:33:54Z</time>
      </trkpt>
      <trkpt lat="48.841827000" lon="10.144357000">
        <ele>703.800</ele>
        <time>2026-08-30T16:33:59Z</time>
      </trkpt>
      <trkpt lat="48.841809000" lon="10.144478000">
        <ele>704.200</ele>
        <time>2026-08-30T16:34:04Z</time>
      </trkpt>
      <trkpt lat="48.841763000" lon="10.144589000">
        <ele>704.800</ele>
        <time>2026-08-30T16:34:09Z</time>
      </trkpt>
      <trkpt lat="48.841683000" lon="10.144624000">
        <ele>705.800</ele>
        <time>2026-08-30T16:34:15Z</time>
      </trkpt>
      <trkpt lat="48.841607000" lon="10.144624000">
        <ele>706.200</ele>
        <time>2026-08-30T16:34:19Z</time>
      </trkpt>
      <trkpt lat="48.841525000" lon="10.144594000">
        <ele>706.800</ele>
        <time>2026-08-30T16:34:24Z</time>
      </trkpt>
      <trkpt lat="48.841460000" lon="10.144661000">
        <ele>707.200</ele>
        <time>2026-08-30T16:34:29Z</time>
      </trkpt>
      <trkpt lat="48.841468000" lon="10.144784000">
        <ele>707.800</ele>
        <time>2026-08-30T16:34:34Z</time>
      </trkpt>
      <trkpt lat="48.841521000" lon="10.145010000">
        <ele>708.400</ele>
        <time>2026-08-30T16:34:42Z</time>
      </trkpt>
      <trkpt lat="48.841528000" lon="10.145128000">
        <ele>708.400</ele>
        <time>2026-08-30T16:34:45Z</time>
      </trkpt>
      <trkpt lat="48.841573000" lon="10.145402000">
        <ele>709.000</ele>
        <time>2026-08-30T16:34:52Z</time>
      </trkpt>
      <trkpt lat="48.841672000" lon="10.145790000">
        <ele>709.400</ele>
        <time>2026-08-30T16:35:01Z</time>
      </trkpt>
      <trkpt lat="48.841675000" lon="10.145925000">
        <ele>709.400</ele>
        <time>2026-08-30T16:35:04Z</time>
      </trkpt>
      <trkpt lat="48.841619000" lon="10.146015000">
        <ele>709.400</ele>
        <time>2026-08-30T16:35:07Z</time>
      </trkpt>
      <trkpt lat="48.841353000" lon="10.146317000">
        <ele>711.000</ele>
        <time>2026-08-30T16:35:22Z</time>
      </trkpt>
      <trkpt lat="48.841295000" lon="10.146423000">
        <ele>712.000</ele>
        <time>2026-08-30T16:35:27Z</time>
      </trkpt>
      <trkpt lat="48.841159000" lon="10.146730000">
        <ele>714.400</ele>
        <time>2026-08-30T16:35:40Z</time>
      </trkpt>
      <trkpt lat="48.841119000" lon="10.146943000">
        <ele>715.600</ele>
        <time>2026-08-30T16:35:48Z</time>
      </trkpt>
      <trkpt lat="48.841107000" lon="10.147189000">
        <ele>717.200</ele>
        <time>2026-08-30T16:35:57Z</time>
      </trkpt>
      <trkpt lat="48.841121000" lon="10.147314000">
        <ele>718.000</ele>
        <time>2026-08-30T16:36:02Z</time>
      </trkpt>
      <trkpt lat="48.841213000" lon="10.147771000">
        <ele>719.200</ele>
        <time>2026-08-30T16:36:16Z</time>
      </trkpt>
      <trkpt lat="48.841228000" lon="10.147908000">
        <ele>719.600</ele>
        <time>2026-08-30T16:36:20Z</time>
      </trkpt>
      <trkpt lat="48.841237000" lon="10.148433000">
        <ele>721.400</ele>
        <time>2026-08-30T16:36:37Z</time>
      </trkpt>
      <trkpt lat="48.841257000" lon="10.148547000">
        <ele>721.400</ele>
        <time>2026-08-30T16:36:41Z</time>
      </trkpt>
      <trkpt lat="48.841298000" lon="10.148662000">
        <ele>721.200</ele>
        <time>2026-08-30T16:36:45Z</time>
      </trkpt>
      <trkpt lat="48.841294000" lon="10.148775000">
        <ele>721.000</ele>
        <time>2026-08-30T16:36:48Z</time>
      </trkpt>
      <trkpt lat="48.841332000" lon="10.148911000">
        <ele>720.800</ele>
        <time>2026-08-30T16:36:52Z</time>
      </trkpt>
      <trkpt lat="48.841341000" lon="10.149038000">
        <ele>720.800</ele>
        <time>2026-08-30T16:36:55Z</time>
      </trkpt>
      <trkpt lat="48.841332000" lon="10.149166000">
        <ele>720.400</ele>
        <time>2026-08-30T16:36:58Z</time>
      </trkpt>
      <trkpt lat="48.841337000" lon="10.149316000">
        <ele>720.000</ele>
        <time>2026-08-30T16:37:01Z</time>
      </trkpt>
      <trkpt lat="48.841298000" lon="10.149437000">
        <ele>719.600</ele>
        <time>2026-08-30T16:37:04Z</time>
      </trkpt>
      <trkpt lat="48.841279000" lon="10.149546000">
        <ele>719.400</ele>
        <time>2026-08-30T16:37:07Z</time>
      </trkpt>
      <trkpt lat="48.841290000" lon="10.149837000">
        <ele>718.600</ele>
        <time>2026-08-30T16:37:13Z</time>
      </trkpt>
      <trkpt lat="48.841239000" lon="10.150234000">
        <ele>716.800</ele>
        <time>2026-08-30T16:37:21Z</time>
      </trkpt>
      <trkpt lat="48.841246000" lon="10.150391000">
        <ele>716.200</ele>
        <time>2026-08-30T16:37:24Z</time>
      </trkpt>
      <trkpt lat="48.841218000" lon="10.150498000">
        <ele>715.800</ele>
        <time>2026-08-30T16:37:26Z</time>
      </trkpt>
      <trkpt lat="48.841164000" lon="10.150611000">
        <ele>715.400</ele>
        <time>2026-08-30T16:37:29Z</time>
      </trkpt>
      <trkpt lat="48.841155000" lon="10.150734000">
        <ele>715.000</ele>
        <time>2026-08-30T16:37:32Z</time>
      </trkpt>
      <trkpt lat="48.841190000" lon="10.150870000">
        <ele>714.600</ele>
        <time>2026-08-30T16:37:35Z</time>
      </trkpt>
      <trkpt lat="48.841202000" lon="10.151000000">
        <ele>714.200</ele>
        <time>2026-08-30T16:37:37Z</time>
      </trkpt>
      <trkpt lat="48.841199000" lon="10.151158000">
        <ele>713.800</ele>
        <time>2026-08-30T16:37:39Z</time>
      </trkpt>
      <trkpt lat="48.841175000" lon="10.151274000">
        <ele>713.200</ele>
        <time>2026-08-30T16:37:41Z</time>
      </trkpt>
      <trkpt lat="48.841219000" lon="10.151541000">
        <ele>712.600</ele>
        <time>2026-08-30T16:37:46Z</time>
      </trkpt>
      <trkpt lat="48.841192000" lon="10.151667000">
        <ele>712.400</ele>
        <time>2026-08-30T16:37:48Z</time>
      </trkpt>
      <trkpt lat="48.841149000" lon="10.151776000">
        <ele>712.000</ele>
        <time>2026-08-30T16:37:50Z</time>
      </trkpt>
      <trkpt lat="48.841123000" lon="10.151888000">
        <ele>711.600</ele>
        <time>2026-08-30T16:37:52Z</time>
      </trkpt>
      <trkpt lat="48.841127000" lon="10.152045000">
        <ele>711.400</ele>
        <time>2026-08-30T16:37:55Z</time>
      </trkpt>
      <trkpt lat="48.841164000" lon="10.152152000">
        <ele>711.200</ele>
        <time>2026-08-30T16:37:57Z</time>
      </trkpt>
      <trkpt lat="48.841158000" lon="10.152268000">
        <ele>710.800</ele>
        <time>2026-08-30T16:37:59Z</time>
      </trkpt>
      <trkpt lat="48.841169000" lon="10.152385000">
        <ele>710.200</ele>
        <time>2026-08-30T16:38:01Z</time>
      </trkpt>
      <trkpt lat="48.841209000" lon="10.152508000">
        <ele>709.600</ele>
        <time>2026-08-30T16:38:03Z</time>
      </trkpt>
      <trkpt lat="48.841203000" lon="10.152624000">
        <ele>709.200</ele>
        <time>2026-08-30T16:38:05Z</time>
      </trkpt>
      <trkpt lat="48.841173000" lon="10.152763000">
        <ele>708.400</ele>
        <time>2026-08-30T16:38:08Z</time>
      </trkpt>
      <trkpt lat="48.841216000" lon="10.152877000">
        <ele>708.000</ele>
        <time>2026-08-30T16:38:11Z</time>
      </trkpt>
      <trkpt lat="48.841219000" lon="10.153010000">
        <ele>707.600</ele>
        <time>2026-08-30T16:38:14Z</time>
      </trkpt>
      <trkpt lat="48.841099000" lon="10.153399000">
        <ele>706.400</ele>
        <time>2026-08-30T16:38:23Z</time>
      </trkpt>
      <trkpt lat="48.841087000" lon="10.153514000">
        <ele>706.200</ele>
        <time>2026-08-30T16:38:26Z</time>
      </trkpt>
      <trkpt lat="48.841092000" lon="10.153637000">
        <ele>706.000</ele>
        <time>2026-08-30T16:38:29Z</time>
      </trkpt>
      <trkpt lat="48.841084000" lon="10.153770000">
        <ele>705.800</ele>
        <time>2026-08-30T16:38:32Z</time>
      </trkpt>
      <trkpt lat="48.841029000" lon="10.153854000">
        <ele>705.600</ele>
        <time>2026-08-30T16:38:35Z</time>
      </trkpt>
      <trkpt lat="48.840888000" lon="10.153990000">
        <ele>705.600</ele>
        <time>2026-08-30T16:38:41Z</time>
      </trkpt>
      <trkpt lat="48.840783000" lon="10.154191000">
        <ele>705.600</ele>
        <time>2026-08-30T16:38:47Z</time>
      </trkpt>
      <trkpt lat="48.840660000" lon="10.154377000">
        <ele>706.000</ele>
        <time>2026-08-30T16:38:53Z</time>
      </trkpt>
      <trkpt lat="48.840522000" lon="10.154550000">
        <ele>706.200</ele>
        <time>2026-08-30T16:38:59Z</time>
      </trkpt>
      <trkpt lat="48.840473000" lon="10.154644000">
        <ele>706.400</ele>
        <time>2026-08-30T16:39:02Z</time>
      </trkpt>
      <trkpt lat="48.840286000" lon="10.154881000">
        <ele>707.200</ele>
        <time>2026-08-30T16:39:11Z</time>
      </trkpt>
      <trkpt lat="48.840156000" lon="10.155091000">
        <ele>707.000</ele>
        <time>2026-08-30T16:39:17Z</time>
      </trkpt>
      <trkpt lat="48.840092000" lon="10.155149000">
        <ele>706.800</ele>
        <time>2026-08-30T16:39:19Z</time>
      </trkpt>
      <trkpt lat="48.839918000" lon="10.155384000">
        <ele>706.200</ele>
        <time>2026-08-30T16:39:25Z</time>
      </trkpt>
      <trkpt lat="48.839643000" lon="10.155709000">
        <ele>705.600</ele>
        <time>2026-08-30T16:39:35Z</time>
      </trkpt>
      <trkpt lat="48.839602000" lon="10.155845000">
        <ele>705.600</ele>
        <time>2026-08-30T16:39:38Z</time>
      </trkpt>
      <trkpt lat="48.839484000" lon="10.156016000">
        <ele>705.800</ele>
        <time>2026-08-30T16:39:46Z</time>
      </trkpt>
      <trkpt lat="48.839455000" lon="10.156129000">
        <ele>705.600</ele>
        <time>2026-08-30T16:39:50Z</time>
      </trkpt>
      <trkpt lat="48.839398000" lon="10.156217000">
        <ele>705.400</ele>
        <time>2026-08-30T16:39:53Z</time>
      </trkpt>
      <trkpt lat="48.839313000" lon="10.156259000">
        <ele>705.200</ele>
        <time>2026-08-30T16:39:57Z</time>
      </trkpt>
      <trkpt lat="48.839241000" lon="10.156258000">
        <ele>705.000</ele>
        <time>2026-08-30T16:40:00Z</time>
      </trkpt>
      <trkpt lat="48.839186000" lon="10.156148000">
        <ele>704.600</ele>
        <time>2026-08-30T16:40:05Z</time>
      </trkpt>
      <trkpt lat="48.839107000" lon="10.156121000">
        <ele>704.400</ele>
        <time>2026-08-30T16:40:08Z</time>
      </trkpt>
      <trkpt lat="48.839053000" lon="10.156213000">
        <ele>704.400</ele>
        <time>2026-08-30T16:40:12Z</time>
      </trkpt>
      <trkpt lat="48.838883000" lon="10.156271000">
        <ele>704.000</ele>
        <time>2026-08-30T16:40:20Z</time>
      </trkpt>
      <trkpt lat="48.838806000" lon="10.156217000">
        <ele>703.800</ele>
        <time>2026-08-30T16:40:25Z</time>
      </trkpt>
      <trkpt lat="48.838672000" lon="10.156373000">
        <ele>703.200</ele>
        <time>2026-08-30T16:40:33Z</time>
      </trkpt>
      <trkpt lat="48.838602000" lon="10.156298000">
        <ele>703.000</ele>
        <time>2026-08-30T16:40:38Z</time>
      </trkpt>
      <trkpt lat="48.838502000" lon="10.156291000">
        <ele>703.000</ele>
        <time>2026-08-30T16:40:42Z</time>
      </trkpt>
      <trkpt lat="48.838347000" lon="10.156245000">
        <ele>702.400</ele>
        <time>2026-08-30T16:40:48Z</time>
      </trkpt>
      <trkpt lat="48.838276000" lon="10.156273000">
        <ele>702.200</ele>
        <time>2026-08-30T16:40:51Z</time>
      </trkpt>
      <trkpt lat="48.838219000" lon="10.156180000">
        <ele>701.600</ele>
        <time>2026-08-30T16:40:57Z</time>
      </trkpt>
      <trkpt lat="48.838139000" lon="10.156118000">
        <ele>701.600</ele>
        <time>2026-08-30T16:41:01Z</time>
      </trkpt>
      <trkpt lat="48.838075000" lon="10.156038000">
        <ele>701.200</ele>
        <time>2026-08-30T16:41:05Z</time>
      </trkpt>
      <trkpt lat="48.838025000" lon="10.155931000">
        <ele>700.800</ele>
        <time>2026-08-30T16:41:08Z</time>
      </trkpt>
      <trkpt lat="48.837962000" lon="10.155867000">
        <ele>700.600</ele>
        <time>2026-08-30T16:41:11Z</time>
      </trkpt>
      <trkpt lat="48.837894000" lon="10.155829000">
        <ele>700.200</ele>
        <time>2026-08-30T16:41:14Z</time>
      </trkpt>
      <trkpt lat="48.837817000" lon="10.155866000">
        <ele>700.000</ele>
        <time>2026-08-30T16:41:19Z</time>
      </trkpt>
      <trkpt lat="48.837745000" lon="10.155933000">
        <ele>699.800</ele>
        <time>2026-08-30T16:41:23Z</time>
      </trkpt>
      <trkpt lat="48.837591000" lon="10.156008000">
        <ele>699.000</ele>
        <time>2026-08-30T16:41:29Z</time>
      </trkpt>
      <trkpt lat="48.837466000" lon="10.156193000">
        <ele>698.000</ele>
        <time>2026-08-30T16:41:35Z</time>
      </trkpt>
      <trkpt lat="48.837372000" lon="10.156195000">
        <ele>697.400</ele>
        <time>2026-08-30T16:41:38Z</time>
      </trkpt>
      <trkpt lat="48.837292000" lon="10.156157000">
        <ele>696.800</ele>
        <time>2026-08-30T16:41:41Z</time>
      </trkpt>
      <trkpt lat="48.837197000" lon="10.156179000">
        <ele>696.400</ele>
        <time>2026-08-30T16:41:44Z</time>
      </trkpt>
      <trkpt lat="48.837125000" lon="10.156133000">
        <ele>695.600</ele>
        <time>2026-08-30T16:41:48Z</time>
      </trkpt>
      <trkpt lat="48.837060000" lon="10.156045000">
        <ele>695.000</ele>
        <time>2026-08-30T16:41:53Z</time>
      </trkpt>
      <trkpt lat="48.836964000" lon="10.156002000">
        <ele>694.600</ele>
        <time>2026-08-30T16:41:56Z</time>
      </trkpt>
      <trkpt lat="48.836898000" lon="10.155941000">
        <ele>694.000</ele>
        <time>2026-08-30T16:41:58Z</time>
      </trkpt>
      <trkpt lat="48.836808000" lon="10.155958000">
        <ele>693.200</ele>
        <time>2026-08-30T16:42:01Z</time>
      </trkpt>
      <trkpt lat="48.836587000" lon="10.156124000">
        <ele>692.000</ele>
        <time>2026-08-30T16:42:10Z</time>
      </trkpt>
      <trkpt lat="48.836534000" lon="10.156201000">
        <ele>691.600</ele>
        <time>2026-08-30T16:42:13Z</time>
      </trkpt>
      <trkpt lat="48.836449000" lon="10.156259000">
        <ele>691.400</ele>
        <time>2026-08-30T16:42:17Z</time>
      </trkpt>
      <trkpt lat="48.836362000" lon="10.156278000">
        <ele>691.000</ele>
        <time>2026-08-30T16:42:20Z</time>
      </trkpt>
      <trkpt lat="48.836288000" lon="10.156198000">
        <ele>690.200</ele>
        <time>2026-08-30T16:42:24Z</time>
      </trkpt>
      <trkpt lat="48.836246000" lon="10.156078000">
        <ele>689.800</ele>
        <time>2026-08-30T16:42:27Z</time>
      </trkpt>
      <trkpt lat="48.836053000" lon="10.155979000">
        <ele>689.000</ele>
        <time>2026-08-30T16:42:33Z</time>
      </trkpt>
      <trkpt lat="48.835905000" lon="10.155824000">
        <ele>687.400</ele>
        <time>2026-08-30T16:42:38Z</time>
      </trkpt>
      <trkpt lat="48.835809000" lon="10.155789000">
        <ele>686.200</ele>
        <time>2026-08-30T16:42:41Z</time>
      </trkpt>
      <trkpt lat="48.835728000" lon="10.155813000">
        <ele>685.000</ele>
        <time>2026-08-30T16:42:46Z</time>
      </trkpt>
      <trkpt lat="48.835730000" lon="10.155671000">
        <ele>683.600</ele>
        <time>2026-08-30T16:44:00Z</time>
      </trkpt>
      <trkpt lat="48.835746000" lon="10.155546000">
        <ele>683.400</ele>
        <time>2026-08-30T16:44:03Z</time>
      </trkpt>
      <trkpt lat="48.835725000" lon="10.155421000">
        <ele>683.200</ele>
        <time>2026-08-30T16:44:05Z</time>
      </trkpt>
      <trkpt lat="48.835679000" lon="10.155334000">
        <ele>683.000</ele>
        <time>2026-08-30T16:44:07Z</time>
      </trkpt>
      <trkpt lat="48.835605000" lon="10.155315000">
        <ele>682.600</ele>
        <time>2026-08-30T16:44:09Z</time>
      </trkpt>
      <trkpt lat="48.835560000" lon="10.155225000">
        <ele>681.600</ele>
        <time>2026-08-30T16:44:13Z</time>
      </trkpt>
      <trkpt lat="48.835543000" lon="10.155102000">
        <ele>681.200</ele>
        <time>2026-08-30T16:44:17Z</time>
      </trkpt>
      <trkpt lat="48.835473000" lon="10.155061000">
        <ele>680.800</ele>
        <time>2026-08-30T16:44:21Z</time>
      </trkpt>
      <trkpt lat="48.835404000" lon="10.154993000">
        <ele>679.800</ele>
        <time>2026-08-30T16:44:24Z</time>
      </trkpt>
      <trkpt lat="48.835325000" lon="10.155007000">
        <ele>678.800</ele>
        <time>2026-08-30T16:44:27Z</time>
      </trkpt>
      <trkpt lat="48.835267000" lon="10.155104000">
        <ele>678.200</ele>
        <time>2026-08-30T16:44:31Z</time>
      </trkpt>
      <trkpt lat="48.835192000" lon="10.155183000">
        <ele>678.400</ele>
        <time>2026-08-30T16:44:35Z</time>
      </trkpt>
      <trkpt lat="48.835139000" lon="10.155094000">
        <ele>678.600</ele>
        <time>2026-08-30T16:44:39Z</time>
      </trkpt>
      <trkpt lat="48.835065000" lon="10.155063000">
        <ele>678.600</ele>
        <time>2026-08-30T16:44:42Z</time>
      </trkpt>
      <trkpt lat="48.835000000" lon="10.155159000">
        <ele>678.200</ele>
        <time>2026-08-30T16:44:46Z</time>
      </trkpt>
      <trkpt lat="48.834918000" lon="10.155111000">
        <ele>678.400</ele>
        <time>2026-08-30T16:44:50Z</time>
      </trkpt>
      <trkpt lat="48.834835000" lon="10.155149000">
        <ele>678.200</ele>
        <time>2026-08-30T16:44:53Z</time>
      </trkpt>
      <trkpt lat="48.834773000" lon="10.155220000">
        <ele>678.200</ele>
        <time>2026-08-30T16:44:56Z</time>
      </trkpt>
      <trkpt lat="48.834696000" lon="10.155258000">
        <ele>678.400</ele>
        <time>2026-08-30T16:44:59Z</time>
      </trkpt>
      <trkpt lat="48.834507000" lon="10.155197000">
        <ele>678.400</ele>
        <time>2026-08-30T16:45:05Z</time>
      </trkpt>
      <trkpt lat="48.834443000" lon="10.155136000">
        <ele>678.600</ele>
        <time>2026-08-30T16:45:07Z</time>
      </trkpt>
      <trkpt lat="48.834255000" lon="10.155040000">
        <ele>678.600</ele>
        <time>2026-08-30T16:45:13Z</time>
      </trkpt>
      <trkpt lat="48.834155000" lon="10.155007000">
        <ele>678.600</ele>
        <time>2026-08-30T16:45:16Z</time>
      </trkpt>
      <trkpt lat="48.833989000" lon="10.154998000">
        <ele>678.800</ele>
        <time>2026-08-30T16:45:21Z</time>
      </trkpt>
      <trkpt lat="48.833906000" lon="10.154977000">
        <ele>679.000</ele>
        <time>2026-08-30T16:45:24Z</time>
      </trkpt>
      <trkpt lat="48.833834000" lon="10.155001000">
        <ele>679.000</ele>
        <time>2026-08-30T16:45:26Z</time>
      </trkpt>
      <trkpt lat="48.833626000" lon="10.154954000">
        <ele>678.400</ele>
        <time>2026-08-30T16:45:32Z</time>
      </trkpt>
      <trkpt lat="48.833440000" lon="10.154981000">
        <ele>678.400</ele>
        <time>2026-08-30T16:45:37Z</time>
      </trkpt>
      <trkpt lat="48.833239000" lon="10.155039000">
        <ele>678.600</ele>
        <time>2026-08-30T16:45:43Z</time>
      </trkpt>
      <trkpt lat="48.833062000" lon="10.155058000">
        <ele>679.000</ele>
        <time>2026-08-30T16:45:49Z</time>
      </trkpt>
      <trkpt lat="48.832883000" lon="10.155015000">
        <ele>679.400</ele>
        <time>2026-08-30T16:45:59Z</time>
      </trkpt>
      <trkpt lat="48.832798000" lon="10.155042000">
        <ele>679.200</ele>
        <time>2026-08-30T16:46:03Z</time>
      </trkpt>
      <trkpt lat="48.832726000" lon="10.155028000">
        <ele>679.200</ele>
        <time>2026-08-30T16:46:06Z</time>
      </trkpt>
      <trkpt lat="48.832459000" lon="10.155063000">
        <ele>679.400</ele>
        <time>2026-08-30T16:46:15Z</time>
      </trkpt>
      <trkpt lat="48.832363000" lon="10.155047000">
        <ele>679.400</ele>
        <time>2026-08-30T16:46:18Z</time>
      </trkpt>
      <trkpt lat="48.832169000" lon="10.155064000">
        <ele>679.400</ele>
        <time>2026-08-30T16:46:24Z</time>
      </trkpt>
      <trkpt lat="48.832082000" lon="10.155099000">
        <ele>679.400</ele>
        <time>2026-08-30T16:46:27Z</time>
      </trkpt>
      <trkpt lat="48.831959000" lon="10.155264000">
        <ele>679.800</ele>
        <time>2026-08-30T16:46:33Z</time>
      </trkpt>
      <trkpt lat="48.831907000" lon="10.155363000">
        <ele>680.200</ele>
        <time>2026-08-30T16:46:36Z</time>
      </trkpt>
      <trkpt lat="48.831770000" lon="10.155507000">
        <ele>680.400</ele>
        <time>2026-08-30T16:46:42Z</time>
      </trkpt>
      <trkpt lat="48.831710000" lon="10.155607000">
        <ele>680.400</ele>
        <time>2026-08-30T16:46:45Z</time>
      </trkpt>
      <trkpt lat="48.831642000" lon="10.155674000">
        <ele>680.400</ele>
        <time>2026-08-30T16:46:48Z</time>
      </trkpt>
      <trkpt lat="48.831549000" lon="10.155703000">
        <ele>680.400</ele>
        <time>2026-08-30T16:46:52Z</time>
      </trkpt>
      <trkpt lat="48.831481000" lon="10.155769000">
        <ele>680.200</ele>
        <time>2026-08-30T16:46:55Z</time>
      </trkpt>
      <trkpt lat="48.831422000" lon="10.155855000">
        <ele>680.200</ele>
        <time>2026-08-30T16:46:58Z</time>
      </trkpt>
      <trkpt lat="48.831394000" lon="10.155976000">
        <ele>680.400</ele>
        <time>2026-08-30T16:47:02Z</time>
      </trkpt>
      <trkpt lat="48.831403000" lon="10.156090000">
        <ele>680.600</ele>
        <time>2026-08-30T16:47:05Z</time>
      </trkpt>
      <trkpt lat="48.831462000" lon="10.156156000">
        <ele>681.000</ele>
        <time>2026-08-30T16:47:09Z</time>
      </trkpt>
      <trkpt lat="48.831547000" lon="10.156374000">
        <ele>681.000</ele>
        <time>2026-08-30T16:48:05Z</time>
      </trkpt>
      <trkpt lat="48.831518000" lon="10.156493000">
        <ele>681.000</ele>
        <time>2026-08-30T16:48:08Z</time>
      </trkpt>
      <trkpt lat="48.831443000" lon="10.156576000">
        <ele>681.000</ele>
        <time>2026-08-30T16:48:11Z</time>
      </trkpt>
      <trkpt lat="48.831373000" lon="10.156621000">
        <ele>681.000</ele>
        <time>2026-08-30T16:48:13Z</time>
      </trkpt>
      <trkpt lat="48.831285000" lon="10.156823000">
        <ele>680.600</ele>
        <time>2026-08-30T16:48:17Z</time>
      </trkpt>
      <trkpt lat="48.831161000" lon="10.157243000">
        <ele>679.800</ele>
        <time>2026-08-30T16:48:23Z</time>
      </trkpt>
      <trkpt lat="48.831070000" lon="10.157711000">
        <ele>679.200</ele>
        <time>2026-08-30T16:48:29Z</time>
      </trkpt>
      <trkpt lat="48.830986000" lon="10.158026000">
        <ele>678.600</ele>
        <time>2026-08-30T16:48:33Z</time>
      </trkpt>
      <trkpt lat="48.830852000" lon="10.158680000">
        <ele>677.000</ele>
        <time>2026-08-30T16:48:41Z</time>
      </trkpt>
      <trkpt lat="48.830750000" lon="10.159314000">
        <ele>675.600</ele>
        <time>2026-08-30T16:48:49Z</time>
      </trkpt>
      <trkpt lat="48.830713000" lon="10.159486000">
        <ele>675.400</ele>
        <time>2026-08-30T16:48:51Z</time>
      </trkpt>
      <trkpt lat="48.830648000" lon="10.159629000">
        <ele>675.000</ele>
        <time>2026-08-30T16:48:53Z</time>
      </trkpt>
      <trkpt lat="48.830571000" lon="10.159737000">
        <ele>674.600</ele>
        <time>2026-08-30T16:48:55Z</time>
      </trkpt>
      <trkpt lat="48.830517000" lon="10.159864000">
        <ele>674.400</ele>
        <time>2026-08-30T16:48:57Z</time>
      </trkpt>
      <trkpt lat="48.830377000" lon="10.160432000">
        <ele>673.800</ele>
        <time>2026-08-30T16:49:05Z</time>
      </trkpt>
      <trkpt lat="48.830316000" lon="10.160545000">
        <ele>673.600</ele>
        <time>2026-08-30T16:49:07Z</time>
      </trkpt>
      <trkpt lat="48.830268000" lon="10.160675000">
        <ele>673.400</ele>
        <time>2026-08-30T16:49:09Z</time>
      </trkpt>
      <trkpt lat="48.830200000" lon="10.160974000">
        <ele>673.200</ele>
        <time>2026-08-30T16:49:13Z</time>
      </trkpt>
      <trkpt lat="48.830077000" lon="10.161244000">
        <ele>672.800</ele>
        <time>2026-08-30T16:49:17Z</time>
      </trkpt>
      <trkpt lat="48.830024000" lon="10.161399000">
        <ele>672.600</ele>
        <time>2026-08-30T16:49:19Z</time>
      </trkpt>
      <trkpt lat="48.829901000" lon="10.161858000">
        <ele>672.000</ele>
        <time>2026-08-30T16:49:25Z</time>
      </trkpt>
      <trkpt lat="48.829286000" lon="10.164610000">
        <ele>674.000</ele>
        <time>2026-08-30T16:50:05Z</time>
      </trkpt>
      <trkpt lat="48.829237000" lon="10.164734000">
        <ele>674.000</ele>
        <time>2026-08-30T16:50:07Z</time>
      </trkpt>
      <trkpt lat="48.829109000" lon="10.164947000">
        <ele>674.000</ele>
        <time>2026-08-30T16:50:11Z</time>
      </trkpt>
      <trkpt lat="48.829055000" lon="10.165060000">
        <ele>674.000</ele>
        <time>2026-08-30T16:50:13Z</time>
      </trkpt>
      <trkpt lat="48.829020000" lon="10.165186000">
        <ele>674.200</ele>
        <time>2026-08-30T16:50:15Z</time>
      </trkpt>
      <trkpt lat="48.828956000" lon="10.165612000">
        <ele>674.200</ele>
        <time>2026-08-30T16:50:21Z</time>
      </trkpt>
      <trkpt lat="48.828923000" lon="10.165918000">
        <ele>674.000</ele>
        <time>2026-08-30T16:50:25Z</time>
      </trkpt>
      <trkpt lat="48.828890000" lon="10.166076000">
        <ele>673.600</ele>
        <time>2026-08-30T16:50:27Z</time>
      </trkpt>
      <trkpt lat="48.828727000" lon="10.166546000">
        <ele>672.400</ele>
        <time>2026-08-30T16:50:33Z</time>
      </trkpt>
      <trkpt lat="48.828676000" lon="10.166723000">
        <ele>672.000</ele>
        <time>2026-08-30T16:50:35Z</time>
      </trkpt>
      <trkpt lat="48.828642000" lon="10.166931000">
        <ele>671.400</ele>
        <time>2026-08-30T16:50:37Z</time>
      </trkpt>
      <trkpt lat="48.828604000" lon="10.167455000">
        <ele>669.400</ele>
        <time>2026-08-30T16:50:41Z</time>
      </trkpt>
      <trkpt lat="48.828565000" lon="10.167772000">
        <ele>667.800</ele>
        <time>2026-08-30T16:50:43Z</time>
      </trkpt>
      <trkpt lat="48.828415000" lon="10.168624000">
        <ele>662.400</ele>
        <time>2026-08-30T16:50:48Z</time>
      </trkpt>
      <trkpt lat="48.828004000" lon="10.170449000">
        <ele>654.000</ele>
        <time>2026-08-30T16:51:00Z</time>
      </trkpt>
      <trkpt lat="48.827724000" lon="10.171546000">
        <ele>652.000</ele>
        <time>2026-08-30T16:51:09Z</time>
      </trkpt>
      <trkpt lat="48.827584000" lon="10.172176000">
        <ele>651.600</ele>
        <time>2026-08-30T16:51:15Z</time>
      </trkpt>
      <trkpt lat="48.827405000" lon="10.172895000">
        <ele>650.200</ele>
        <time>2026-08-30T16:51:22Z</time>
      </trkpt>
      <trkpt lat="48.827306000" lon="10.173210000">
        <ele>649.400</ele>
        <time>2026-08-30T16:51:25Z</time>
      </trkpt>
      <trkpt lat="48.827195000" lon="10.173501000">
        <ele>648.800</ele>
        <time>2026-08-30T16:51:28Z</time>
      </trkpt>
      <trkpt lat="48.827061000" lon="10.173771000">
        <ele>647.800</ele>
        <time>2026-08-30T16:51:31Z</time>
      </trkpt>
      <trkpt lat="48.826644000" lon="10.174522000">
        <ele>645.000</ele>
        <time>2026-08-30T16:51:39Z</time>
      </trkpt>
      <trkpt lat="48.826277000" lon="10.175123000">
        <ele>642.000</ele>
        <time>2026-08-30T16:51:45Z</time>
      </trkpt>
      <trkpt lat="48.826163000" lon="10.175332000">
        <ele>641.000</ele>
        <time>2026-08-30T16:51:47Z</time>
      </trkpt>
      <trkpt lat="48.826017000" lon="10.175659000">
        <ele>639.600</ele>
        <time>2026-08-30T16:51:50Z</time>
      </trkpt>
      <trkpt lat="48.825899000" lon="10.175989000">
        <ele>638.600</ele>
        <time>2026-08-30T16:51:53Z</time>
      </trkpt>
      <trkpt lat="48.825546000" lon="10.176789000">
        <ele>637.000</ele>
        <time>2026-08-30T16:52:01Z</time>
      </trkpt>
      <trkpt lat="48.825513000" lon="10.176886000">
        <ele>637.000</ele>
        <time>2026-08-30T16:52:02Z</time>
      </trkpt>
      <trkpt lat="48.825465000" lon="10.177102000">
        <ele>636.400</ele>
        <time>2026-08-30T16:52:04Z</time>
      </trkpt>
      <trkpt lat="48.825425000" lon="10.177541000">
        <ele>635.800</ele>
        <time>2026-08-30T16:52:08Z</time>
      </trkpt>
      <trkpt lat="48.825451000" lon="10.178619000">
        <ele>634.400</ele>
        <time>2026-08-30T16:52:18Z</time>
      </trkpt>
      <trkpt lat="48.825505000" lon="10.179527000">
        <ele>633.200</ele>
        <time>2026-08-30T16:52:26Z</time>
      </trkpt>
      <trkpt lat="48.825537000" lon="10.179753000">
        <ele>632.800</ele>
        <time>2026-08-30T16:52:28Z</time>
      </trkpt>
      <trkpt lat="48.825698000" lon="10.180372000">
        <ele>632.200</ele>
        <time>2026-08-30T16:52:34Z</time>
      </trkpt>
      <trkpt lat="48.825903000" lon="10.180902000">
        <ele>631.800</ele>
        <time>2026-08-30T16:52:40Z</time>
      </trkpt>
      <trkpt lat="48.826254000" lon="10.181971000">
        <ele>631.200</ele>
        <time>2026-08-30T16:52:52Z</time>
      </trkpt>
      <trkpt lat="48.826362000" lon="10.182359000">
        <ele>630.600</ele>
        <time>2026-08-30T16:52:56Z</time>
      </trkpt>
      <trkpt lat="48.826443000" lon="10.182761000">
        <ele>630.000</ele>
        <time>2026-08-30T16:53:00Z</time>
      </trkpt>
      <trkpt lat="48.826475000" lon="10.182974000">
        <ele>629.800</ele>
        <time>2026-08-30T16:53:02Z</time>
      </trkpt>
      <trkpt lat="48.826493000" lon="10.183189000">
        <ele>629.400</ele>
        <time>2026-08-30T16:53:04Z</time>
      </trkpt>
      <trkpt lat="48.826490000" lon="10.183621000">
        <ele>628.600</ele>
        <time>2026-08-30T16:53:08Z</time>
      </trkpt>
      <trkpt lat="48.826502000" lon="10.184046000">
        <ele>628.000</ele>
        <time>2026-08-30T16:53:12Z</time>
      </trkpt>
      <trkpt lat="48.826498000" lon="10.184258000">
        <ele>627.800</ele>
        <time>2026-08-30T16:53:14Z</time>
      </trkpt>
      <trkpt lat="48.826477000" lon="10.184467000">
        <ele>627.600</ele>
        <time>2026-08-30T16:53:16Z</time>
      </trkpt>
      <trkpt lat="48.826375000" lon="10.185088000">
        <ele>627.000</ele>
        <time>2026-08-30T16:53:22Z</time>
      </trkpt>
      <trkpt lat="48.826117000" lon="10.186077000">
        <ele>625.600</ele>
        <time>2026-08-30T16:53:56Z</time>
      </trkpt>
      <trkpt lat="48.826091000" lon="10.186212000">
        <ele>625.400</ele>
        <time>2026-08-30T16:54:00Z</time>
      </trkpt>
      <trkpt lat="48.825339000" lon="10.188941000">
        <ele>623.800</ele>
        <time>2026-08-30T16:54:37Z</time>
      </trkpt>
      <trkpt lat="48.825260000" lon="10.189281000">
        <ele>623.600</ele>
        <time>2026-08-30T16:54:41Z</time>
      </trkpt>
      <trkpt lat="48.824924000" lon="10.191057000">
        <ele>622.600</ele>
        <time>2026-08-30T16:55:01Z</time>
      </trkpt>
      <trkpt lat="48.824867000" lon="10.191412000">
        <ele>622.200</ele>
        <time>2026-08-30T16:55:05Z</time>
      </trkpt>
      <trkpt lat="48.824711000" lon="10.192226000">
        <ele>622.000</ele>
        <time>2026-08-30T16:55:15Z</time>
      </trkpt>
      <trkpt lat="48.824693000" lon="10.192391000">
        <ele>622.000</ele>
        <time>2026-08-30T16:55:17Z</time>
      </trkpt>
      <trkpt lat="48.824654000" lon="10.192542000">
        <ele>622.000</ele>
        <time>2026-08-30T16:55:19Z</time>
      </trkpt>
      <trkpt lat="48.824584000" lon="10.192646000">
        <ele>622.000</ele>
        <time>2026-08-30T16:55:21Z</time>
      </trkpt>
      <trkpt lat="48.824519000" lon="10.192771000">
        <ele>621.800</ele>
        <time>2026-08-30T16:55:23Z</time>
      </trkpt>
      <trkpt lat="48.824508000" lon="10.192923000">
        <ele>621.800</ele>
        <time>2026-08-30T16:55:25Z</time>
      </trkpt>
      <trkpt lat="48.824538000" lon="10.193061000">
        <ele>621.800</ele>
        <time>2026-08-30T16:55:27Z</time>
      </trkpt>
      <trkpt lat="48.824542000" lon="10.193199000">
        <ele>621.800</ele>
        <time>2026-08-30T16:55:29Z</time>
      </trkpt>
      <trkpt lat="48.824487000" lon="10.193439000">
        <ele>621.600</ele>
        <time>2026-08-30T16:55:33Z</time>
      </trkpt>
      <trkpt lat="48.824471000" lon="10.193568000">
        <ele>621.600</ele>
        <time>2026-08-30T16:55:35Z</time>
      </trkpt>
      <trkpt lat="48.824416000" lon="10.193821000">
        <ele>621.400</ele>
        <time>2026-08-30T16:55:39Z</time>
      </trkpt>
      <trkpt lat="48.824380000" lon="10.194091000">
        <ele>621.200</ele>
        <time>2026-08-30T16:55:43Z</time>
      </trkpt>
      <trkpt lat="48.824256000" lon="10.194696000">
        <ele>620.600</ele>
        <time>2026-08-30T16:55:53Z</time>
      </trkpt>
      <trkpt lat="48.824184000" lon="10.194760000">
        <ele>620.600</ele>
        <time>2026-08-30T16:55:55Z</time>
      </trkpt>
      <trkpt lat="48.823813000" lon="10.194808000">
        <ele>620.000</ele>
        <time>2026-08-30T16:56:03Z</time>
      </trkpt>
      <trkpt lat="48.823726000" lon="10.194865000">
        <ele>619.800</ele>
        <time>2026-08-30T16:56:05Z</time>
      </trkpt>
      <trkpt lat="48.823546000" lon="10.195028000">
        <ele>619.200</ele>
        <time>2026-08-30T16:56:09Z</time>
      </trkpt>
      <trkpt lat="48.823397000" lon="10.195261000">
        <ele>618.400</ele>
        <time>2026-08-30T16:56:13Z</time>
      </trkpt>
      <trkpt lat="48.823344000" lon="10.195409000">
        <ele>618.200</ele>
        <time>2026-08-30T16:56:15Z</time>
      </trkpt>
      <trkpt lat="48.823259000" lon="10.195726000">
        <ele>617.600</ele>
        <time>2026-08-30T16:56:19Z</time>
      </trkpt>
      <trkpt lat="48.823064000" lon="10.196709000">
        <ele>616.200</ele>
        <time>2026-08-30T16:56:31Z</time>
      </trkpt>
      <trkpt lat="48.823042000" lon="10.196870000">
        <ele>616.000</ele>
        <time>2026-08-30T16:56:33Z</time>
      </trkpt>
      <trkpt lat="48.822944000" lon="10.197298000">
        <ele>615.600</ele>
        <time>2026-08-30T16:56:39Z</time>
      </trkpt>
      <trkpt lat="48.822925000" lon="10.197445000">
        <ele>615.400</ele>
        <time>2026-08-30T16:56:41Z</time>
      </trkpt>
      <trkpt lat="48.822856000" lon="10.197757000">
        <ele>615.000</ele>
        <time>2026-08-30T16:56:45Z</time>
      </trkpt>
      <trkpt lat="48.822688000" lon="10.198399000">
        <ele>614.600</ele>
        <time>2026-08-30T16:56:53Z</time>
      </trkpt>
      <trkpt lat="48.822634000" lon="10.198551000">
        <ele>614.400</ele>
        <time>2026-08-30T16:56:55Z</time>
      </trkpt>
      <trkpt lat="48.822442000" lon="10.198971000">
        <ele>614.200</ele>
        <time>2026-08-30T16:57:01Z</time>
      </trkpt>
      <trkpt lat="48.822143000" lon="10.199515000">
        <ele>614.000</ele>
        <time>2026-08-30T16:57:09Z</time>
      </trkpt>
      <trkpt lat="48.822085000" lon="10.199667000">
        <ele>613.800</ele>
        <time>2026-08-30T16:57:11Z</time>
      </trkpt>
    </trkseg>
  </trk>
</gpx>
